createdAt,value
2022-08-29T00:02:06.118Z,95.90
2022-08-29T00:04:33.632Z,95.90
2022-08-29T00:07:00.983Z,95.80
2022-08-29T00:09:28.317Z,95.70
2022-08-29T00:11:55.738Z,96.00
2022-08-29T00:14:23.306Z,95.70
2022-08-29T00:16:51.457Z,95.60
2022-08-29T00:19:19.106Z,95.60
2022-08-29T00:21:46.503Z,95.50
2022-08-29T00:24:15.614Z,95.50
2022-08-29T00:26:43.372Z,95.50
2022-08-29T00:29:10.806Z,95.50
2022-08-29T00:31:38.432Z,95.50
2022-08-29T00:34:05.948Z,95.40
2022-08-29T00:36:33.226Z,95.40
2022-08-29T00:39:00.495Z,95.40
2022-08-29T00:41:27.825Z,95.50
2022-08-29T00:43:55.073Z,95.60
2022-08-29T00:46:43.605Z,95.60
2022-08-29T00:49:22.890Z,95.70
2022-08-29T00:51:51.280Z,95.70
2022-08-29T00:54:19.176Z,95.70
2022-08-29T00:56:47.116Z,95.70
2022-08-29T00:59:25.497Z,95.70
2022-08-29T01:01:55.804Z,95.70
2022-08-29T01:04:24.245Z,95.70
2022-08-29T01:06:53.847Z,95.70
2022-08-29T01:09:22.586Z,96.00
2022-08-29T01:12:09.365Z,95.70
2022-08-29T01:14:38.731Z,95.60
2022-08-29T01:17:09.403Z,95.70
2022-08-29T01:19:51.978Z,95.60
2022-08-29T01:22:33.748Z,95.60
2022-08-29T01:25:05.460Z,95.50
2022-08-29T01:27:37.162Z,95.50
2022-08-29T01:30:07.887Z,95.60
2022-08-29T01:32:35.347Z,95.70
2022-08-29T01:35:03.224Z,95.60
2022-08-29T01:37:33.646Z,95.70
2022-08-29T01:40:01.606Z,95.70
2022-08-29T01:42:29.294Z,95.60
2022-08-29T01:45:05.359Z,95.60
2022-08-29T01:47:38.805Z,95.60
2022-08-29T01:50:14.420Z,95.60
2022-08-29T01:52:43.008Z,95.60
2022-08-29T01:55:11.656Z,95.60
2022-08-29T01:57:39.687Z,95.70
2022-08-29T02:00:09.561Z,95.70
2022-08-29T02:02:38.348Z,95.70
2022-08-29T02:05:06.943Z,95.70
2022-08-29T02:07:34.477Z,95.70
2022-08-29T02:10:01.902Z,95.70
2022-08-29T02:12:31.594Z,95.70
2022-08-29T02:14:59.800Z,95.70
2022-08-29T02:17:28.071Z,95.70
2022-08-29T02:19:55.761Z,95.60
2022-08-29T02:22:23.157Z,95.60
2022-08-29T02:24:50.767Z,95.60
2022-08-29T02:27:18.158Z,95.50
2022-08-29T02:29:45.466Z,95.50
2022-08-29T02:32:14.818Z,95.60
2022-08-29T02:34:48.418Z,95.60
2022-08-29T02:37:16.679Z,95.60
2022-08-29T02:39:44.333Z,95.60
2022-08-29T02:42:11.780Z,95.60
2022-08-29T02:44:39.062Z,95.70
2022-08-29T02:47:08.955Z,95.70
2022-08-29T02:49:36.549Z,95.70
2022-08-29T02:52:06.633Z,95.60
2022-08-29T02:54:34.907Z,95.60
2022-08-29T02:57:02.582Z,95.60
2022-08-29T02:59:30.051Z,95.60
2022-08-29T03:01:57.519Z,95.40
2022-08-29T03:04:24.888Z,95.40
2022-08-29T03:06:52.373Z,95.30
2022-08-29T03:09:19.685Z,95.30
2022-08-29T03:11:48.517Z,95.30
2022-08-29T03:14:16.094Z,95.30
2022-08-29T03:16:43.559Z,95.30
2022-08-29T03:19:10.822Z,95.40
2022-08-29T03:21:38.095Z,95.40
2022-08-29T03:24:05.694Z,95.30
2022-08-29T03:26:32.950Z,95.10
2022-08-29T03:29:00.236Z,95.10
2022-08-29T03:31:27.528Z,95.00
2022-08-29T03:33:54.964Z,95.00
2022-08-29T03:36:22.313Z,94.90
2022-08-29T03:38:49.982Z,94.90
2022-08-29T03:41:25.951Z,94.90
2022-08-29T03:43:59.161Z,94.80
2022-08-29T03:46:27.813Z,94.70
2022-08-29T03:48:55.643Z,94.70
2022-08-29T03:51:24.046Z,94.60
2022-08-29T03:53:56.559Z,94.60
2022-08-29T03:56:25.315Z,94.60
2022-08-29T03:58:53.579Z,94.90
2022-08-29T04:01:25.845Z,94.40
2022-08-29T04:03:53.259Z,94.40
2022-08-29T04:06:22.469Z,94.50
2022-08-29T04:08:51.766Z,94.50
2022-08-29T04:11:22.003Z,94.60
2022-08-29T04:13:50.042Z,94.40
2022-08-29T04:16:24.206Z,94.30
2022-08-29T04:18:51.789Z,94.30
2022-08-29T04:21:19.363Z,94.30
2022-08-29T04:23:47.329Z,94.40
2022-08-29T04:29:07.729Z,94.20
2022-08-29T04:31:36.476Z,94.10
2022-08-29T04:34:06.394Z,94.10
2022-08-29T04:36:35.233Z,94.00
2022-08-29T04:39:02.981Z,93.80
2022-08-29T04:41:32.958Z,93.70
2022-08-29T04:44:01.598Z,93.60
2022-08-29T04:46:29.045Z,93.60
2022-08-29T04:48:58.506Z,93.50
2022-08-29T04:51:29.883Z,93.50
2022-08-29T04:53:57.301Z,93.30
2022-08-29T04:56:24.600Z,93.30
2022-08-29T04:58:52.239Z,93.20
2022-08-29T05:01:22.915Z,93.20
2022-08-29T05:03:52.480Z,92.80
2022-08-29T05:06:22.677Z,92.80
2022-08-29T05:08:58.879Z,92.70
2022-08-29T05:11:29.674Z,92.50
2022-08-29T05:13:58.104Z,92.30
2022-08-29T05:16:25.906Z,92.10
2022-08-29T05:18:53.545Z,91.90
2022-08-29T05:21:40.514Z,91.90
2022-08-29T05:24:10.869Z,91.90
2022-08-29T05:26:42.121Z,91.60
2022-08-29T05:29:13.179Z,91.10
2022-08-29T05:31:42.386Z,91.10
2022-08-29T05:34:31.949Z,91.30
2022-08-29T05:37:00.542Z,91.00
2022-08-29T05:39:28.302Z,91.10
2022-08-29T05:41:56.703Z,91.10
2022-08-29T05:44:24.435Z,91.10
2022-08-29T05:46:51.826Z,90.90
2022-08-29T05:49:19.458Z,90.60
2022-08-29T05:51:47.132Z,90.60
2022-08-29T05:54:14.624Z,90.20
2022-08-29T05:56:42.940Z,90.00
2022-08-29T05:59:12.578Z,90.30
2022-08-29T06:01:40.350Z,90.00
2022-08-29T06:04:07.837Z,90.10
2022-08-29T06:06:35.379Z,89.60
2022-08-29T06:09:03.080Z,90.10
2022-08-29T06:11:32.431Z,89.80
2022-08-29T06:14:00.759Z,90.00
2022-08-29T06:16:30.062Z,90.10
2022-08-29T06:18:57.357Z,90.00
2022-08-29T06:21:25.088Z,90.30
2022-08-29T06:23:52.455Z,90.30
2022-08-29T06:26:20.009Z,90.10
2022-08-29T06:28:47.988Z,89.70
2022-08-29T06:31:28.054Z,89.50
2022-08-29T06:33:57.952Z,89.50
2022-08-29T06:36:26.975Z,88.80
2022-08-29T06:39:04.217Z,88.60
2022-08-29T06:41:31.480Z,88.50
2022-08-29T06:44:00.276Z,88.70
2022-08-29T06:46:31.537Z,87.80
2022-08-29T06:49:01.431Z,87.30
2022-08-29T06:51:32.971Z,86.90
2022-08-29T06:54:02.216Z,86.90
2022-08-29T06:56:30.093Z,87.10
2022-08-29T06:58:57.728Z,88.00
2022-08-29T07:01:25.402Z,86.40
2022-08-29T07:03:54.252Z,86.30
2022-08-29T07:06:22.000Z,86.70
2022-08-29T07:08:55.960Z,85.90
2022-08-29T07:11:30.127Z,85.80
2022-08-29T07:14:00.499Z,86.30
2022-08-29T07:16:29.183Z,85.60
2022-08-29T07:18:56.464Z,85.10
2022-08-29T07:21:25.322Z,85.30
2022-08-29T07:23:54.635Z,84.80
2022-08-29T07:26:25.911Z,83.50
2022-08-29T07:29:13.698Z,84.10
2022-08-29T07:31:41.453Z,83.40
2022-08-29T07:34:08.890Z,83.50
2022-08-29T07:36:37.531Z,83.20
2022-08-29T07:39:27.692Z,83.20
2022-08-29T07:41:55.137Z,82.90
2022-08-29T07:44:22.746Z,83.20
2022-08-29T07:46:55.736Z,83.40
2022-08-29T07:49:35.937Z,82.00
2022-08-29T07:52:07.856Z,82.20
2022-08-29T07:54:35.215Z,82.00
2022-08-29T07:57:02.505Z,80.80
2022-08-29T07:59:30.996Z,80.30
2022-08-29T08:01:58.379Z,81.10
2022-08-29T08:04:26.487Z,80.80
2022-08-29T08:06:53.763Z,80.60
2022-08-29T08:09:21.095Z,80.20
2022-08-29T08:11:48.401Z,80.10
2022-08-29T08:14:15.675Z,79.90
2022-08-29T08:16:44.158Z,79.50
2022-08-29T08:19:13.879Z,78.60
2022-08-29T08:21:49.605Z,78.60
2022-08-29T08:24:19.714Z,78.00
2022-08-29T08:26:48.841Z,78.10
2022-08-29T08:29:17.547Z,77.40
2022-08-29T08:31:48.838Z,77.00
2022-08-29T08:34:18.112Z,76.20
2022-08-29T08:36:46.433Z,76.40
2022-08-29T08:39:14.798Z,75.50
2022-08-29T08:41:54.575Z,74.70
2022-08-29T08:44:21.804Z,74.00
2022-08-29T08:46:53.060Z,72.40
2022-08-29T08:49:43.164Z,72.30
2022-08-29T08:52:27.717Z,72.10
2022-08-29T08:55:03.385Z,71.00
2022-08-29T08:58:00.478Z,70.60
2022-08-29T09:00:35.595Z,69.90
2022-08-29T09:03:38.979Z,70.10
2022-08-29T09:06:41.092Z,70.00
2022-08-29T09:09:17.160Z,69.20
2022-08-29T09:12:00.081Z,69.00
2022-08-29T09:14:47.310Z,69.80
2022-08-29T09:17:41.865Z,67.90
2022-08-29T09:20:14.755Z,65.40
2022-08-29T09:22:45.123Z,65.90
2022-08-29T09:25:13.323Z,65.10
2022-08-29T09:27:40.941Z,65.20
2022-08-29T09:30:12.331Z,66.80
2022-08-29T09:32:56.236Z,66.00
2022-08-29T09:35:29.467Z,66.50
2022-08-29T09:38:04.968Z,65.80
2022-08-29T09:40:45.485Z,65.60
2022-08-29T09:43:26.947Z,66.30
2022-08-29T09:46:26.344Z,66.00
2022-08-29T09:49:13.067Z,66.20
2022-08-29T09:51:48.811Z,65.70
2022-08-29T09:54:28.895Z,66.40
2022-08-29T09:57:22.119Z,65.70
2022-08-29T10:00:14.862Z,65.00
2022-08-29T10:02:43.163Z,64.50
2022-08-29T10:05:28.280Z,64.60
2022-08-29T10:07:55.832Z,64.30
2022-08-29T10:10:25.787Z,64.10
2022-08-29T10:13:17.306Z,63.80
2022-08-29T10:15:55.287Z,64.50
2022-08-29T10:19:03.307Z,63.80
2022-08-29T10:21:57.497Z,64.30
2022-08-29T10:24:58.611Z,64.40
2022-08-29T10:27:55.350Z,63.90
2022-08-29T10:30:40.296Z,63.30
2022-08-29T10:33:25.127Z,63.30
2022-08-29T10:36:06.591Z,63.70
2022-08-29T10:38:51.829Z,63.90
2022-08-29T10:41:39.333Z,63.40
2022-08-29T10:44:37.197Z,62.40
2022-08-29T10:47:10.684Z,63.90
2022-08-29T10:50:02.219Z,63.60
2022-08-29T10:53:02.568Z,62.80
2022-08-29T10:55:55.870Z,62.50
2022-08-29T10:58:26.383Z,62.80
2022-08-29T11:01:22.593Z,62.10
2022-08-29T11:03:55.395Z,59.00
2022-08-29T11:07:21.230Z,59.80
2022-08-29T11:10:05.660Z,60.10
2022-08-29T11:12:45.406Z,60.50
2022-08-29T11:15:19.405Z,60.80
2022-08-29T11:17:53.805Z,59.10
2022-08-29T11:20:27.572Z,58.60
2022-08-29T11:23:01.756Z,58.90
2022-08-29T11:25:30.308Z,57.90
2022-08-29T11:28:13.252Z,58.10
2022-08-29T11:30:59.898Z,58.40
2022-08-29T11:33:27.412Z,59.80
2022-08-29T11:36:10.548Z,59.20
2022-08-29T11:38:53.435Z,57.70
2022-08-29T11:41:31.360Z,56.90
2022-08-29T11:44:26.493Z,57.40
2022-08-29T11:46:56.514Z,57.40
2022-08-29T11:49:30.274Z,56.60
2022-08-29T11:52:22.370Z,56.90
2022-08-29T11:55:11.523Z,55.70
2022-08-29T11:58:05.189Z,53.10
2022-08-29T12:00:51.598Z,55.20
2022-08-29T12:03:35.096Z,54.90
2022-08-29T12:06:24.518Z,54.70
2022-08-29T12:09:01.746Z,53.90
2022-08-29T12:12:02.586Z,52.60
2022-08-29T12:14:37.969Z,52.00
2022-08-29T12:17:10.026Z,52.30
2022-08-29T12:19:56.269Z,53.00
2022-08-29T12:22:51.463Z,53.10
2022-08-29T12:25:27.771Z,52.00
2022-08-29T12:28:31.146Z,52.40
2022-08-29T12:30:59.479Z,52.20
2022-08-29T12:33:54.400Z,52.30
2022-08-29T12:36:27.661Z,51.10
2022-08-29T12:39:07.400Z,50.60
2022-08-29T12:41:58.701Z,49.70
2022-08-29T12:44:36.124Z,51.10
2022-08-29T12:47:13.099Z,51.30
2022-08-29T12:49:53.110Z,51.30
2022-08-29T12:52:32.505Z,50.60
2022-08-29T12:55:17.946Z,51.10
2022-08-29T12:57:47.531Z,51.10
2022-08-29T13:00:21.563Z,49.70
2022-08-29T13:03:05.291Z,49.10
2022-08-29T13:05:43.239Z,48.30
2022-08-29T13:08:33.351Z,47.00
2022-08-29T13:11:04.300Z,48.00
2022-08-29T13:13:31.780Z,49.00
2022-08-29T13:16:01.686Z,47.90
2022-08-29T13:18:31.272Z,48.40
2022-08-29T13:21:04.226Z,48.00
2022-08-29T13:23:45.855Z,48.20
2022-08-29T13:26:16.152Z,49.00
2022-08-29T13:28:59.048Z,49.10
2022-08-29T13:31:32.791Z,48.90
2022-08-29T13:34:09.465Z,48.80
2022-08-29T13:36:38.942Z,48.90
2022-08-29T13:39:25.234Z,49.00
2022-08-29T13:42:02.021Z,49.70
2022-08-29T13:44:36.194Z,49.70
2022-08-29T13:47:27.811Z,50.00
2022-08-29T13:50:07.881Z,49.40
2022-08-29T13:52:35.330Z,50.30
2022-08-29T13:55:02.837Z,50.80
2022-08-29T13:57:31.537Z,50.30
2022-08-29T13:59:59.099Z,50.60
2022-08-29T14:02:45.255Z,49.20
2022-08-29T14:05:13.735Z,49.40
2022-08-29T14:07:43.776Z,49.10
2022-08-29T14:10:14.139Z,49.50
2022-08-29T14:12:41.552Z,50.40
2022-08-29T14:15:11.107Z,50.00
2022-08-29T14:17:57.210Z,50.50
2022-08-29T14:20:25.380Z,50.20
2022-08-29T14:22:52.692Z,50.50
2022-08-29T14:25:20.376Z,50.00
2022-08-29T14:27:48.444Z,50.40
2022-08-29T14:30:18.954Z,50.90
2022-08-29T14:32:46.584Z,51.10
2022-08-29T14:35:17.064Z,51.20
2022-08-29T14:37:54.015Z,51.60
2022-08-29T14:40:22.119Z,50.70
2022-08-29T14:42:49.811Z,51.10
2022-08-29T14:45:17.296Z,50.90
2022-08-29T14:47:46.351Z,51.40
2022-08-29T14:50:32.840Z,51.70
2022-08-29T14:53:00.197Z,51.10
2022-08-29T14:55:27.782Z,51.20
2022-08-29T14:57:55.072Z,51.20
2022-08-29T15:00:25.930Z,51.20
2022-08-29T15:02:53.623Z,50.70
2022-08-29T15:05:21.190Z,50.80
2022-08-29T15:07:49.488Z,51.50
2022-08-29T15:10:20.117Z,51.60
2022-08-29T15:12:47.508Z,52.20
2022-08-29T15:15:15.068Z,52.30
2022-08-29T15:17:43.692Z,51.70
2022-08-29T15:23:01.741Z,51.20
2022-08-29T15:25:29.020Z,51.90
2022-08-29T15:27:56.345Z,51.80
2022-08-29T15:30:25.034Z,51.60
2022-08-29T15:32:52.687Z,51.80
2022-08-29T15:35:20.534Z,51.90
2022-08-29T15:37:48.092Z,52.00
2022-08-29T15:40:16.184Z,51.40
2022-08-29T15:42:43.589Z,51.20
2022-08-29T15:45:11.834Z,51.50
2022-08-29T15:47:39.810Z,51.90
2022-08-29T15:50:09.941Z,51.90
2022-08-29T15:52:37.820Z,51.70
2022-08-29T15:55:06.730Z,52.10
2022-08-29T15:57:34.247Z,52.10
2022-08-29T16:00:21.534Z,52.00
2022-08-29T16:02:57.896Z,51.40
2022-08-29T16:05:25.311Z,51.50
2022-08-29T16:07:52.724Z,51.60
2022-08-29T16:10:20.595Z,51.90
2022-08-29T16:12:48.002Z,52.10
2022-08-29T16:15:15.297Z,52.00
2022-08-29T16:17:42.581Z,52.50
2022-08-29T16:20:13.802Z,52.80
2022-08-29T16:22:42.256Z,52.70
2022-08-29T16:25:11.371Z,52.50
2022-08-29T16:27:38.840Z,52.50
2022-08-29T16:30:07.260Z,52.60
2022-08-29T16:32:34.729Z,52.70
2022-08-29T16:35:02.481Z,52.70
2022-08-29T16:37:29.866Z,52.60
2022-08-29T16:39:57.331Z,52.80
2022-08-29T16:42:27.564Z,53.40
2022-08-29T16:44:58.764Z,53.70
2022-08-29T16:47:27.858Z,53.90
2022-08-29T16:49:55.104Z,54.00
2022-08-29T16:52:22.510Z,53.90
2022-08-29T16:54:50.724Z,53.90
2022-08-29T16:57:21.419Z,53.70
2022-08-29T16:59:48.983Z,54.00
2022-08-29T17:02:16.800Z,54.20
2022-08-29T17:04:46.306Z,54.50
2022-08-29T17:07:13.945Z,54.70
2022-08-29T17:09:41.309Z,55.00
2022-08-29T17:12:09.382Z,55.80
2022-08-29T17:14:37.644Z,55.60
2022-08-29T17:17:05.433Z,56.00
2022-08-29T17:19:34.411Z,56.40
2022-08-29T17:22:01.856Z,56.60
2022-08-29T17:24:29.294Z,57.00
2022-08-29T17:26:57.497Z,57.30
2022-08-29T17:29:25.046Z,57.60
2022-08-29T17:31:52.633Z,57.80
2022-08-29T17:34:20.186Z,57.90
2022-08-29T17:36:49.668Z,58.20
2022-08-29T17:39:17.334Z,58.40
2022-08-29T17:41:51.668Z,58.60
2022-08-29T17:44:19.145Z,58.90
2022-08-29T17:46:46.459Z,59.00
2022-08-29T17:49:13.866Z,59.20
2022-08-29T17:51:41.425Z,59.30
2022-08-29T17:54:12.416Z,59.40
2022-08-29T17:56:46.350Z,59.70
2022-08-29T17:59:15.377Z,59.90
2022-08-29T18:01:43.537Z,60.40
2022-08-29T18:04:11.633Z,60.60
2022-08-29T18:06:39.849Z,60.90
2022-08-29T18:09:08.330Z,61.20
2022-08-29T18:11:39.293Z,61.60
2022-08-29T18:14:07.385Z,61.70
2022-08-29T18:16:35.194Z,62.10
2022-08-29T18:19:03.184Z,62.00
2022-08-29T18:21:31.967Z,62.10
2022-08-29T18:23:59.963Z,62.50
2022-08-29T18:26:27.456Z,62.80
2022-08-29T18:28:55.776Z,62.90
2022-08-29T18:31:23.799Z,62.90
2022-08-29T18:34:06.479Z,63.30
2022-08-29T18:36:36.233Z,63.50
2022-08-29T18:39:05.071Z,63.80
2022-08-29T18:41:33.612Z,64.00
2022-08-29T18:44:01.075Z,64.20
2022-08-29T18:46:30.195Z,64.40
2022-08-29T18:48:58.300Z,64.80
2022-08-29T18:51:26.133Z,65.30
2022-08-29T18:53:53.760Z,65.50
2022-08-29T18:56:21.201Z,65.80
2022-08-29T18:58:49.107Z,66.20
2022-08-29T19:01:28.792Z,66.50
2022-08-29T19:03:58.139Z,67.80
2022-08-29T19:06:26.121Z,67.50
2022-08-29T19:08:55.491Z,68.10
2022-08-29T19:11:22.838Z,68.70
2022-08-29T19:13:52.584Z,69.30
2022-08-29T19:16:21.330Z,70.40
2022-08-29T19:18:48.977Z,70.10
2022-08-29T19:21:16.309Z,70.40
2022-08-29T19:23:47.437Z,70.70
2022-08-29T19:26:29.431Z,71.20
2022-08-29T19:29:04.944Z,71.60
2022-08-29T19:31:32.862Z,72.00
2022-08-29T19:34:00.747Z,72.20
2022-08-29T19:36:28.112Z,72.80
2022-08-29T19:41:40.087Z,73.50
2022-08-29T19:44:07.567Z,73.70
2022-08-29T19:46:36.172Z,74.10
2022-08-29T19:51:54.272Z,74.60
2022-08-29T19:54:21.733Z,74.90
2022-08-29T19:56:49.383Z,75.10
2022-08-29T19:59:17.375Z,75.40
2022-08-29T20:01:46.163Z,75.70
2022-08-29T20:04:13.690Z,75.80
2022-08-29T20:06:41.304Z,76.00
2022-08-29T20:09:11.808Z,76.30
2022-08-29T20:11:43.753Z,76.30
2022-08-29T20:14:11.355Z,76.60
2022-08-29T20:16:41.994Z,76.80
2022-08-29T20:19:12.036Z,77.00
2022-08-29T20:21:40.884Z,77.20
2022-08-29T20:24:08.232Z,77.30
2022-08-29T20:26:37.232Z,77.60
2022-08-29T20:29:08.225Z,78.00
2022-08-29T20:31:35.695Z,78.30
2022-08-29T20:34:03.590Z,78.50
2022-08-29T20:36:49.618Z,78.40
2022-08-29T20:39:20.089Z,79.20
2022-08-29T20:41:55.421Z,78.70
2022-08-29T20:44:25.342Z,78.90
2022-08-29T20:46:53.459Z,79.30
2022-08-29T20:49:23.964Z,79.40
2022-08-29T20:51:51.473Z,80.00
2022-08-29T20:54:21.890Z,80.30
2022-08-29T20:56:49.757Z,80.40
2022-08-29T20:59:17.238Z,80.50
2022-08-29T21:01:45.056Z,80.70
2022-08-29T21:04:32.683Z,80.80
2022-08-29T21:07:11.174Z,81.10
2022-08-29T21:09:46.103Z,81.30
2022-08-29T21:12:14.887Z,81.30
2022-08-29T21:14:42.482Z,81.50
2022-08-29T21:17:11.372Z,81.70
2022-08-29T21:19:40.191Z,81.70
2022-08-29T21:22:09.193Z,82.00
2022-08-29T21:24:36.582Z,82.10
2022-08-29T21:27:04.327Z,82.20
2022-08-29T21:29:31.925Z,82.50
2022-08-29T21:31:59.234Z,82.60
2022-08-29T21:34:26.550Z,83.00
2022-08-29T21:36:54.558Z,83.20
2022-08-29T21:39:27.847Z,83.40
2022-08-29T21:41:57.357Z,83.70
2022-08-29T21:44:24.721Z,84.00
2022-08-29T21:46:52.817Z,84.20
2022-08-29T21:49:21.941Z,84.50
2022-08-29T21:51:49.713Z,84.80
2022-08-29T21:54:17.761Z,85.20
2022-08-29T21:56:46.694Z,85.40
2022-08-29T21:59:16.540Z,85.60
2022-08-29T22:01:45.625Z,85.70
2022-08-29T22:04:27.797Z,85.70
2022-08-29T22:06:57.728Z,85.90
2022-08-29T22:09:25.811Z,85.90
2022-08-29T22:11:53.461Z,86.00
2022-08-29T22:14:20.784Z,86.10
2022-08-29T22:16:48.054Z,86.30
2022-08-29T22:19:17.402Z,86.40
2022-08-29T22:21:52.124Z,86.20
2022-08-29T22:24:19.815Z,86.30
2022-08-29T22:26:47.522Z,86.10
2022-08-29T22:29:15.896Z,86.00
2022-08-29T22:31:45.035Z,86.00
2022-08-29T22:34:15.117Z,86.30
2022-08-29T22:36:43.485Z,86.40
2022-08-29T22:39:10.993Z,86.00
2022-08-29T22:41:38.562Z,85.80
2022-08-29T22:44:52.723Z,85.80
2022-08-29T22:46:54.398Z,86.80
2022-08-29T22:49:22.016Z,86.40
2022-08-29T22:51:50.329Z,86.70
2022-08-29T22:54:36.922Z,87.00
2022-08-29T22:57:10.516Z,87.10
2022-08-29T22:59:39.063Z,87.00
2022-08-29T23:02:07.387Z,87.00
2022-08-29T23:04:35.063Z,86.80
2022-08-29T23:07:03.077Z,86.90
2022-08-29T23:09:35.065Z,87.00
2022-08-29T23:12:05.761Z,87.10
2022-08-29T23:14:36.034Z,87.10
2022-08-29T23:17:08.284Z,87.20
2022-08-29T23:19:37.029Z,87.50
2022-08-29T23:22:09.536Z,87.50
2022-08-29T23:24:37.391Z,87.80
2022-08-29T23:27:05.407Z,87.90
2022-08-29T23:29:34.135Z,88.10
2022-08-29T23:32:09.195Z,88.40
2022-08-29T23:34:36.505Z,88.60
2022-08-29T23:37:04.271Z,89.00
2022-08-29T23:39:31.663Z,89.30
2022-08-29T23:41:59.571Z,89.60
2022-08-29T23:44:26.861Z,90.00
2022-08-29T23:46:57.515Z,90.10
2022-08-29T23:49:25.024Z,90.20
2022-08-29T23:51:52.263Z,90.30
2022-08-29T23:54:19.787Z,90.30
2022-08-29T23:56:47.201Z,90.40
2022-08-29T23:59:34.602Z,90.50
